sensor_id;sensor_type;location;lat;lon;timestamp;pressure;altitude;pressure_sealevel;temperature;humidity
77737;BME280;66903;59.926;30.404;2023-08-31T00:00:34;100691.91;;;25.08;56.54
77737;BME280;66903;59.926;30.404;2023-08-31T00:05:41;100686.22;;;25.22;56.37
77737;BME280;66903;59.926;30.404;2023-08-31T00:10:42;100663.03;;;25.24;56.50
77737;BME280;66903;59.926;30.404;2023-08-31T00:15:42;100641.34;;;25.23;56.58
77737;BME280;66903;59.926;30.404;2023-08-31T00:20:43;100617.81;;;25.26;56.75
77737;BME280;66903;59.926;30.404;2023-08-31T00:25:43;100594.63;;;25.27;57.04
77737;BME280;66903;59.926;30.404;2023-08-31T00:30:44;100633.66;;;25.37;56.68
77737;BME280;66903;59.926;30.404;2023-08-31T00:35:44;100626.94;;;25.28;56.96
77737;BME280;66903;59.926;30.404;2023-08-31T00:40:48;100646.84;;;25.19;57.02
77737;BME280;66903;59.926;30.404;2023-08-31T00:45:51;100634.97;;;25.12;57.19
77737;BME280;66903;59.926;30.404;2023-08-31T00:50:57;100653.81;;;25.13;57.09
77737;BME280;66903;59.926;30.404;2023-08-31T00:55:58;100645.53;;;24.98;57.49
77737;BME280;66903;59.926;30.404;2023-08-31T01:06:36;100655.22;;;24.83;56.96
77737;BME280;66903;59.926;30.404;2023-08-31T01:16:58;100636.75;;;24.76;57.86
77737;BME280;66903;59.926;30.404;2023-08-31T01:22:03;100622.78;;;24.74;58.10
77737;BME280;66903;59.926;30.404;2023-08-31T01:27:05;100614.22;;;24.74;57.77
77737;BME280;66903;59.926;30.404;2023-08-31T01:32:06;100607.66;;;24.74;57.59
77737;BME280;66903;59.926;30.404;2023-08-31T01:37:14;100593.38;;;24.74;57.33
77737;BME280;66903;59.926;30.404;2023-08-31T01:42:17;100586.88;;;24.68;57.63
77737;BME280;66903;59.926;30.404;2023-08-31T01:47:18;100580.66;;;24.66;57.84
77737;BME280;66903;59.926;30.404;2023-08-31T01:52:19;100556.31;;;24.69;58.03
77737;BME280;66903;59.926;30.404;2023-08-31T01:57:20;100537.09;;;24.74;57.87
77737;BME280;66903;59.926;30.404;2023-08-31T02:02:20;100537.53;;;24.81;57.36
77737;BME280;66903;59.926;30.404;2023-08-31T02:07:21;100523.56;;;24.80;57.75
77737;BME280;66903;59.926;30.404;2023-08-31T02:12:22;100518.72;;;24.80;57.89
77737;BME280;66903;59.926;30.404;2023-08-31T02:17:22;100514.66;;;24.81;57.99
77737;BME280;66903;59.926;30.404;2023-08-31T02:22:23;100500.91;;;24.83;57.71
77737;BME280;66903;59.926;30.404;2023-08-31T02:27:24;100481.47;;;24.85;57.75
77737;BME280;66903;59.926;30.404;2023-08-31T02:32:24;100496.78;;;24.89;57.93
77737;BME280;66903;59.926;30.404;2023-08-31T02:37:25;100466.94;;;24.95;57.79
77737;BME280;66903;59.926;30.404;2023-08-31T02:42:25;100472.25;;;24.88;57.64
77737;BME280;66903;59.926;30.404;2023-08-31T02:47:26;100477.22;;;24.83;57.89
77737;BME280;66903;59.926;30.404;2023-08-31T02:52:26;100496.56;;;24.86;57.91
77737;BME280;66903;59.926;30.404;2023-08-31T02:57:27;100503.56;;;24.93;58.20
77737;BME280;66903;59.926;30.404;2023-08-31T03:02:27;100518.06;;;24.97;57.70
77737;BME280;66903;59.926;30.404;2023-08-31T03:07:28;100531.72;;;24.86;58.17
77737;BME280;66903;59.926;30.404;2023-08-31T03:12:29;100536.66;;;24.81;57.74
77737;BME280;66903;59.926;30.404;2023-08-31T03:17:30;100535.22;;;24.83;58.38
77737;BME280;66903;59.926;30.404;2023-08-31T03:22:32;100535.75;;;24.85;58.15
77737;BME280;66903;59.926;30.404;2023-08-31T03:27:32;100532.25;;;24.88;57.71
77737;BME280;66903;59.926;30.404;2023-08-31T03:32:33;100527.72;;;24.87;57.84
77737;BME280;66903;59.926;30.404;2023-08-31T03:37:33;100522.50;;;24.89;57.90
77737;BME280;66903;59.926;30.404;2023-08-31T03:42:34;100536.78;;;24.89;57.60
77737;BME280;66903;59.926;30.404;2023-08-31T03:47:35;100515.22;;;24.83;57.70
77737;BME280;66903;59.926;30.404;2023-08-31T03:52:36;100519.13;;;24.87;57.73
77737;BME280;66903;59.926;30.404;2023-08-31T03:57:36;100529.06;;;24.90;57.63
77737;BME280;66903;59.926;30.404;2023-08-31T04:02:37;100536.72;;;24.94;57.67
77737;BME280;66903;59.926;30.404;2023-08-31T04:07:38;100522.84;;;25.01;57.18
77737;BME280;66903;59.926;30.404;2023-08-31T04:12:38;100526.63;;;24.97;57.32
77737;BME280;66903;59.926;30.404;2023-08-31T04:17:39;100529.81;;;24.95;57.20
77737;BME280;66903;59.926;30.404;2023-08-31T04:22:40;100544.84;;;24.87;57.45
77737;BME280;66903;59.926;30.404;2023-08-31T04:27:40;100529.72;;;24.87;57.88
77737;BME280;66903;59.926;30.404;2023-08-31T04:32:41;100531.94;;;24.90;57.71
77737;BME280;66903;59.926;30.404;2023-08-31T04:37:42;100547.81;;;24.96;57.88
77737;BME280;66903;59.926;30.404;2023-08-31T04:42:43;100547.28;;;24.94;57.67
77737;BME280;66903;59.926;30.404;2023-08-31T04:47:44;100547.19;;;24.99;57.68
77737;BME280;66903;59.926;30.404;2023-08-31T04:52:44;100547.72;;;25.01;57.73
77737;BME280;66903;59.926;30.404;2023-08-31T04:57:45;100550.25;;;25.02;57.67
77737;BME280;66903;59.926;30.404;2023-08-31T05:02:45;100557.44;;;25.00;57.94
77737;BME280;66903;59.926;30.404;2023-08-31T05:07:46;100553.66;;;25.04;57.93
77737;BME280;66903;59.926;30.404;2023-08-31T05:12:47;100556.94;;;25.11;57.35
77737;BME280;66903;59.926;30.404;2023-08-31T05:17:47;100555.75;;;25.12;57.90
77737;BME280;66903;59.926;30.404;2023-08-31T05:22:48;100553.84;;;25.22;57.99
77737;BME280;66903;59.926;30.404;2023-08-31T05:27:49;100559.88;;;25.34;57.68
77737;BME280;66903;59.926;30.404;2023-08-31T05:32:50;100559.06;;;25.47;57.75
77737;BME280;66903;59.926;30.404;2023-08-31T05:37:50;100564.97;;;25.64;57.47
77737;BME280;66903;59.926;30.404;2023-08-31T16:56:24;100528.28;;;26.59;59.97
77737;BME280;66903;59.926;30.404;2023-08-31T17:01:25;100532.31;;;27.59;57.63
77737;BME280;66903;59.926;30.404;2023-08-31T17:06:25;100540.16;;;28.26;54.86
77737;BME280;66903;59.926;30.404;2023-08-31T17:11:26;100550.63;;;28.65;54.87
77737;BME280;66903;59.926;30.404;2023-08-31T17:16:27;100556.69;;;28.89;54.16
77737;BME280;66903;59.926;30.404;2023-08-31T17:21:28;100556.97;;;29.05;53.37
77737;BME280;66903;59.926;30.404;2023-08-31T17:26:29;100572.22;;;29.14;53.08
77737;BME280;66903;59.926;30.404;2023-08-31T17:31:30;100575.25;;;29.17;52.83
77737;BME280;66903;59.926;30.404;2023-08-31T17:36:30;100581.47;;;29.19;52.36
77737;BME280;66903;59.926;30.404;2023-08-31T17:41:31;100572.53;;;29.21;51.98
77737;BME280;66903;59.926;30.404;2023-08-31T17:46:31;100577.06;;;29.22;52.32
77737;BME280;66903;59.926;30.404;2023-08-31T17:51:32;100568.94;;;29.24;52.43
77737;BME280;66903;59.926;30.404;2023-08-31T17:56:33;100576.72;;;29.23;52.35
77737;BME280;66903;59.926;30.404;2023-08-31T18:01:33;100583.19;;;29.20;51.00
77737;BME280;66903;59.926;30.404;2023-08-31T18:06:34;100586.09;;;29.12;51.39
77737;BME280;66903;59.926;30.404;2023-08-31T18:11:36;100594.41;;;28.96;51.93
77737;BME280;66903;59.926;30.404;2023-08-31T18:16:37;100599.47;;;28.91;52.27
77737;BME280;66903;59.926;30.404;2023-08-31T18:21:37;100586.59;;;28.97;53.21
77737;BME280;66903;59.926;30.404;2023-08-31T18:26:38;100577.81;;;29.02;52.09
77737;BME280;66903;59.926;30.404;2023-08-31T18:31:40;100593.19;;;28.97;52.80
77737;BME280;66903;59.926;30.404;2023-08-31T18:36:41;100596.75;;;28.94;52.06
77737;BME280;66903;59.926;30.404;2023-08-31T18:41:42;100602.53;;;28.94;52.06
77737;BME280;66903;59.926;30.404;2023-08-31T18:46:43;100595.94;;;28.85;52.21
77737;BME280;66903;59.926;30.404;2023-08-31T18:51:43;100600.53;;;28.61;52.58
77737;BME280;66903;59.926;30.404;2023-08-31T18:56:45;100597.31;;;28.45;54.50
77737;BME280;66903;59.926;30.404;2023-08-31T19:01:46;100595.75;;;28.48;52.87
77737;BME280;66903;59.926;30.404;2023-08-31T19:06:46;100599.34;;;28.27;53.26
77737;BME280;66903;59.926;30.404;2023-08-31T19:11:47;100604.03;;;27.98;53.31
77737;BME280;66903;59.926;30.404;2023-08-31T19:16:47;100608.84;;;27.72;53.93
77737;BME280;66903;59.926;30.404;2023-08-31T19:21:50;100602.03;;;27.51;53.79
77737;BME280;66903;59.926;30.404;2023-08-31T19:26:51;100603.22;;;27.27;54.54
77737;BME280;66903;59.926;30.404;2023-08-31T19:31:52;100598.44;;;27.14;54.84
77737;BME280;66903;59.926;30.404;2023-08-31T19:36:53;100596.19;;;27.03;55.31
77737;BME280;66903;59.926;30.404;2023-08-31T19:41:54;100598.63;;;26.87;55.41
77737;BME280;66903;59.926;30.404;2023-08-31T19:46:55;100602.94;;;26.76;55.50
77737;BME280;66903;59.926;30.404;2023-08-31T19:51:55;100620.25;;;26.71;55.32
77737;BME280;66903;59.926;30.404;2023-08-31T19:56:56;100619.66;;;26.61;55.53
77737;BME280;66903;59.926;30.404;2023-08-31T20:01:56;100627.50;;;26.55;55.86
77737;BME280;66903;59.926;30.404;2023-08-31T20:06:57;100632.00;;;26.48;55.09
77737;BME280;66903;59.926;30.404;2023-08-31T20:11:59;100643.25;;;26.44;54.81
77737;BME280;66903;59.926;30.404;2023-08-31T20:17:01;100622.88;;;26.46;56.20
77737;BME280;66903;59.926;30.404;2023-08-31T20:22:04;100628.25;;;26.61;55.56
77737;BME280;66903;59.926;30.404;2023-08-31T20:27:04;100634.19;;;26.86;55.67
77737;BME280;66903;59.926;30.404;2023-08-31T20:32:06;100649.03;;;27.10;55.96
77737;BME280;66903;59.926;30.404;2023-08-31T20:37:07;100659.50;;;27.15;57.44
77737;BME280;66903;59.926;30.404;2023-08-31T20:42:08;100677.28;;;27.25;55.79
77737;BME280;66903;59.926;30.404;2023-08-31T20:47:08;100708.97;;;27.20;56.07
77737;BME280;66903;59.926;30.404;2023-08-31T20:52:09;100701.34;;;26.94;57.79
77737;BME280;66903;59.926;30.404;2023-08-31T20:57:10;100673.66;;;26.67;58.58
77737;BME280;66903;59.926;30.404;2023-08-31T21:02:10;100681.03;;;26.46;58.95
77737;BME280;66903;59.926;30.404;2023-08-31T21:07:11;100712.50;;;26.24;59.50
77737;BME280;66903;59.926;30.404;2023-08-31T21:12:11;100706.09;;;26.00;60.58
77737;BME280;66903;59.926;30.404;2023-08-31T21:17:13;100731.66;;;25.96;60.19
77737;BME280;66903;59.926;30.404;2023-08-31T21:22:13;100754.97;;;25.90;60.82
77737;BME280;66903;59.926;30.404;2023-08-31T21:27:14;100770.03;;;25.82;60.98
77737;BME280;66903;59.926;30.404;2023-08-31T21:32:14;100762.38;;;25.50;61.59
77737;BME280;66903;59.926;30.404;2023-08-31T21:37:15;100673.38;;;25.65;62.03
77737;BME280;66903;59.926;30.404;2023-08-31T21:42:15;100685.78;;;26.01;61.04
77737;BME280;66903;59.926;30.404;2023-08-31T21:47:16;100642.19;;;26.18;61.13
77737;BME280;66903;59.926;30.404;2023-08-31T21:52:17;100645.97;;;26.27;60.75
77737;BME280;66903;59.926;30.404;2023-08-31T21:57:17;100638.25;;;26.28;60.93
77737;BME280;66903;59.926;30.404;2023-08-31T22:02:18;100623.59;;;26.29;60.67
77737;BME280;66903;59.926;30.404;2023-08-31T22:07:18;100606.41;;;26.29;60.64
77737;BME280;66903;59.926;30.404;2023-08-31T22:12:22;100594.81;;;26.56;60.60
77737;BME280;66903;59.926;30.404;2023-08-31T22:17:24;100582.88;;;26.76;59.68
77737;BME280;66903;59.926;30.404;2023-08-31T22:22:24;100589.28;;;26.60;60.16
77737;BME280;66903;59.926;30.404;2023-08-31T22:27:25;100588.97;;;26.61;60.07
77737;BME280;66903;59.926;30.404;2023-08-31T22:32:25;100583.56;;;26.60;59.96
77737;BME280;66903;59.926;30.404;2023-08-31T22:37:26;100564.53;;;26.64;59.99
77737;BME280;66903;59.926;30.404;2023-08-31T22:42:27;100582.47;;;26.69;59.89
77737;BME280;66903;59.926;30.404;2023-08-31T22:47:27;100577.31;;;26.58;59.99
77737;BME280;66903;59.926;30.404;2023-08-31T22:52:28;100590.41;;;26.50;59.63
77737;BME280;66903;59.926;30.404;2023-08-31T22:57:28;100579.84;;;26.37;59.85
77737;BME280;66903;59.926;30.404;2023-08-31T23:02:29;100600.47;;;26.26;60.08
77737;BME280;66903;59.926;30.404;2023-08-31T23:07:30;100615.59;;;26.04;60.60
77737;BME280;66903;59.926;30.404;2023-08-31T23:12:30;100616.66;;;25.81;60.57
77737;BME280;66903;59.926;30.404;2023-08-31T23:17:31;100615.53;;;25.68;60.79
77737;BME280;66903;59.926;30.404;2023-08-31T23:22:31;100586.81;;;25.60;61.04
77737;BME280;66903;59.926;30.404;2023-08-31T23:27:32;100604.38;;;25.67;60.38
77737;BME280;66903;59.926;30.404;2023-08-31T23:32:33;100600.47;;;25.49;60.77
77737;BME280;66903;59.926;30.404;2023-08-31T23:37:33;100608.81;;;25.32;60.89
77737;BME280;66903;59.926;30.404;2023-08-31T23:42:34;100616.84;;;25.16;61.61
77737;BME280;66903;59.926;30.404;2023-08-31T23:47:34;100616.75;;;25.08;61.61
77737;BME280;66903;59.926;30.404;2023-08-31T23:52:35;100625.19;;;24.99;61.57
77737;BME280;66903;59.926;30.404;2023-08-31T23:57:35;100610.56;;;24.87;61.74
